Time;durP1;ratioP1;P1;durP2;ratioP2;P2;SDS_P1;SDS_P2;PMS_P1;PMS_P2;Temp;Humidity;BMP_temperature;BMP_pressure;BME280_temperature;BME280_humidity;BME280_pressure;Samples;Min_cycle;Max_cycle;Signal;HPM_P1;HPM_P2
2023/06/04 00:00:28;;;;;;;;;;;20.40;90.80;;;;;;4591376;19;19930;-23
2023/06/04 00:02:19;;;;;;;;;;;20.40;90.70;;;;;;4591802;19;19919;-22
2023/06/04 00:03:50;;;;;;;;;;;20.40;90.70;;;;;;4591641;19;20258;-23
2023/06/04 00:05:25;;;;;;;;;;;20.40;90.60;;;;;;4591844;19;19941;-26
2023/06/04 00:06:56;;;;;;;;;;;20.40;90.60;;;;;;4590863;19;19989;-23
2023/06/04 00:08:27;;;;;;;;;;;20.40;90.60;;;;;;4590642;19;20583;-24
2023/06/04 00:09:58;;;;;;;;;;;20.40;90.60;;;;;;4590024;19;19923;-22
2023/06/04 00:11:29;;;;;;;;;;;20.40;90.70;;;;;;4593273;19;19914;-24
2023/06/04 00:13:00;;;;;;;;;;;20.40;90.60;;;;;;4592801;19;19922;-22
2023/06/04 00:14:31;;;;;;;;;;;20.40;90.60;;;;;;4592633;19;19911;-26
2023/06/04 00:16:02;;;;;;;;;;;20.40;90.60;;;;;;4590781;19;19935;-25
2023/06/04 00:17:33;;;;;;;;;;;20.40;90.60;;;;;;4591330;19;19934;-25
2023/06/04 00:19:04;;;;;;;;;;;20.40;90.60;;;;;;4591257;19;20304;-25
2023/06/04 00:20:35;;;;;;;;;;;20.40;90.70;;;;;;4592604;19;19935;-28
2023/06/04 00:22:06;;;;;;;;;;;20.40;90.70;;;;;;4592875;19;19918;-27
2023/06/04 00:23:37;;;;;;;;;;;20.40;90.70;;;;;;4591886;19;19907;-27
2023/06/04 00:25:09;;;;;;;;;;;20.40;90.70;;;;;;4592052;19;20315;-24
2023/06/04 00:26:41;;;;;;;;;;;20.40;90.70;;;;;;4591725;19;19990;-22
2023/06/04 00:28:13;;;;;;;;;;;20.40;90.70;;;;;;4592779;19;19914;-23
2023/06/04 00:29:44;;;;;;;;;;;20.30;90.70;;;;;;4591872;19;19956;-23
2023/06/04 00:31:15;;;;;;;;;;;20.30;90.70;;;;;;4591773;19;19915;-24
2023/06/04 00:32:49;;;;;;;;;;;20.30;90.60;;;;;;4592291;19;19914;-24
2023/06/04 00:34:20;;;;;;;;;;;20.30;90.60;;;;;;4592881;19;19963;-24
2023/06/04 00:35:51;;;;;;;;;;;20.30;90.60;;;;;;4591808;19;19919;-25
2023/06/04 00:37:24;;;;;;;;;;;20.30;90.60;;;;;;4592321;19;19917;-22
2023/06/04 00:38:55;;;;;;;;;;;20.30;90.60;;;;;;4592177;19;20316;-23
2023/06/04 00:40:26;;;;;;;;;;;20.30;90.60;;;;;;4592137;19;19926;-23
2023/06/04 00:41:57;;;;;;;;;;;20.30;90.60;;;;;;4591639;19;20246;-24
2023/06/04 00:43:31;;;;;;;;;;;20.30;90.60;;;;;;4592161;19;20273;-28
2023/06/04 00:45:02;;;;;;;;;;;20.30;90.60;;;;;;4592407;19;19930;-22
2023/06/04 00:46:35;;;;;;;;;;;20.30;90.50;;;;;;4591415;19;19938;-24
2023/06/04 00:48:09;;;;;;;;;;;20.30;90.50;;;;;;4592002;19;19926;-25
2023/06/04 00:49:41;;;;;;;;;;;20.30;90.50;;;;;;4590583;19;20360;-23
2023/06/04 00:51:12;;;;;;;;;;;20.30;90.50;;;;;;4591444;19;19914;-26
2023/06/04 00:52:43;;;;;;;;;;;20.30;90.50;;;;;;4590361;19;19917;-23
2023/06/04 00:54:15;;;;;;;;;;;20.30;90.50;;;;;;4591048;19;19915;-26
2023/06/04 00:55:46;;;;;;;;;;;20.30;90.50;;;;;;4590994;19;19911;-26
2023/06/04 00:57:17;;;;;;;;;;;20.30;90.50;;;;;;4591668;19;20013;-26
2023/06/04 00:58:49;;;;;;;;;;;20.30;90.50;;;;;;4590098;19;20325;-28
2023/06/04 01:00:20;;;;;;;;;;;20.30;90.50;;;;;;4590536;19;19935;-22
2023/06/04 01:01:53;;;;;;;;;;;20.30;90.50;;;;;;4591274;19;19911;-26
2023/06/04 01:03:25;;;;;;;;;;;20.30;90.60;;;;;;4592049;19;19933;-22
2023/06/04 01:05:08;;;;;;;;;;;20.30;90.60;;;;;;4590349;19;19921;-24
2023/06/04 01:06:39;;;;;;;;;;;20.30;90.50;;;;;;4591177;19;19915;-23
2023/06/04 01:08:11;;;;;;;;;;;20.30;90.40;;;;;;4590575;19;19922;-24
2023/06/04 01:09:43;;;;;;;;;;;20.20;90.40;;;;;;4590650;19;19918;-24
2023/06/04 01:11:15;;;;;;;;;;;20.30;90.70;;;;;;4590210;19;19921;-23
2023/06/04 01:12:47;;;;;;;;;;;20.30;90.40;;;;;;4591100;19;19939;-23
2023/06/04 01:14:18;;;;;;;;;;;20.20;90.40;;;;;;4591743;19;20326;-28
2023/06/04 01:15:51;;;;;;;;;;;20.20;90.40;;;;;;4591622;19;19914;-27
2023/06/04 01:17:37;;;;;;;;;;;20.20;90.40;;;;;;4591122;19;20338;-24
2023/06/04 01:19:20;;;;;;;;;;;20.20;90.40;;;;;;4590958;19;19921;-24
2023/06/04 01:20:51;;;;;;;;;;;20.20;90.40;;;;;;4590922;19;20349;-26
2023/06/04 01:22:36;;;;;;;;;;;20.20;90.30;;;;;;4590941;19;19943;-24
2023/06/04 01:24:08;;;;;;;;;;;20.20;90.30;;;;;;4590003;19;19929;-23
2023/06/04 01:25:39;;;;;;;;;;;20.20;90.30;;;;;;4590590;19;19974;-23
2023/06/04 01:27:12;;;;;;;;;;;20.20;90.30;;;;;;4590162;19;19919;-25
2023/06/04 01:28:44;;;;;;;;;;;20.20;90.30;;;;;;4590058;19;19942;-26
2023/06/04 01:30:18;;;;;;;;;;;20.20;90.30;;;;;;4589709;19;19926;-24
2023/06/04 01:31:49;;;;;;;;;;;20.20;90.30;;;;;;4589722;19;19914;-24
2023/06/04 01:33:20;;;;;;;;;;;20.20;90.30;;;;;;4589816;19;19918;-22
2023/06/04 01:34:51;;;;;;;;;;;20.20;90.30;;;;;;4590993;19;20266;-29
2023/06/04 01:36:23;;;;;;;;;;;20.20;90.30;;;;;;4589626;19;19923;-25
2023/06/04 01:37:54;;;;;;;;;;;20.20;90.30;;;;;;4590624;19;20329;-25
2023/06/04 01:39:25;;;;;;;;;;;20.20;90.30;;;;;;4588898;19;19981;-25
2023/06/04 01:41:00;;;;;;;;;;;20.20;90.20;;;;;;4590609;19;20248;-23
2023/06/04 01:42:31;;;;;;;;;;;20.20;90.20;;;;;;4590679;19;19926;-24
2023/06/04 01:44:05;;;;;;;;;;;20.20;90.20;;;;;;4590742;19;20242;-24
2023/06/04 01:45:36;;;;;;;;;;;20.20;90.10;;;;;;4590783;19;20408;-27
2023/06/04 01:47:07;;;;;;;;;;;20.10;90.10;;;;;;4593807;19;19922;-23
2023/06/04 01:48:39;;;;;;;;;;;20.20;90.10;;;;;;4595329;19;20349;-27
2023/06/04 01:50:11;;;;;;;;;;;20.20;90.10;;;;;;4595903;19;19941;-23
2023/06/04 01:51:41;;;;;;;;;;;20.20;90.20;;;;;;4595764;19;19927;-26
2023/06/04 01:53:13;;;;;;;;;;;20.20;90.20;;;;;;4595048;19;19922;-24
2023/06/04 01:54:44;;;;;;;;;;;20.10;90.20;;;;;;4595199;19;20242;-23
2023/06/04 01:56:17;;;;;;;;;;;20.20;90.20;;;;;;4595395;19;19918;-24
2023/06/04 01:57:50;;;;;;;;;;;20.10;90.10;;;;;;4595594;19;20259;-24
2023/06/04 01:59:21;;;;;;;;;;;20.10;90.10;;;;;;4594225;19;19923;-24
2023/06/04 02:00:54;;;;;;;;;;;20.10;90.00;;;;;;4595520;19;19914;-28
2023/06/04 02:02:25;;;;;;;;;;;20.10;90.00;;;;;;4595653;19;19919;-23
2023/06/04 02:03:58;;;;;;;;;;;20.10;90.00;;;;;;4595792;19;19935;-24
2023/06/04 02:05:29;;;;;;;;;;;20.10;90.30;;;;;;4595056;19;19918;-23
2023/06/04 02:07:03;;;;;;;;;;;20.10;90.00;;;;;;4595268;19;19921;-23
2023/06/04 02:08:35;;;;;;;;;;;20.10;90.00;;;;;;4595355;19;19918;-24
2023/06/04 02:10:09;;;;;;;;;;;20.10;90.00;;;;;;4593934;19;19918;-25
2023/06/04 02:11:44;;;;;;;;;;;20.10;90.10;;;;;;4594913;19;19941;-23
2023/06/04 02:13:15;;;;;;;;;;;20.10;90.00;;;;;;4595169;19;19915;-26
2023/06/04 02:14:46;;;;;;;;;;;20.10;90.00;;;;;;4595826;19;19930;-23
2023/06/04 02:16:17;;;;;;;;;;;20.10;90.00;;;;;;4595003;19;19926;-23
2023/06/04 02:17:50;;;;;;;;;;;20.10;90.00;;;;;;4595128;19;19918;-27
2023/06/04 02:19:25;;;;;;;;;;;20.10;90.00;;;;;;4594340;19;19910;-24
2023/06/04 02:20:56;;;;;;;;;;;20.10;90.00;;;;;;4595654;19;19919;-26
2023/06/04 02:22:27;;;;;;;;;;;20.10;89.90;;;;;;4594943;19;19915;-23
2023/06/04 02:23:58;;;;;;;;;;;20.10;89.90;;;;;;4594953;19;19993;-23
2023/06/04 02:25:30;;;;;;;;;;;20.10;89.80;;;;;;4593648;19;19914;-22
2023/06/04 02:27:01;;;;;;;;;;;20.10;89.80;;;;;;4592639;19;19919;-24
2023/06/04 02:28:34;;;;;;;;;;;20.10;89.70;;;;;;4594561;19;20241;-24
2023/06/04 02:30:05;;;;;;;;;;;20.10;89.60;;;;;;4594640;19;19915;-24
2023/06/04 02:31:37;;;;;;;;;;;20.10;89.60;;;;;;4594965;19;20255;-24
2023/06/04 02:33:11;;;;;;;;;;;20.10;89.60;;;;;;4594529;19;19972;-24
2023/06/04 02:34:42;;;;;;;;;;;20.10;89.70;;;;;;4594477;19;19938;-23
2023/06/04 02:36:13;;;;;;;;;;;20.10;89.70;;;;;;4594869;19;19919;-23
2023/06/04 02:37:44;;;;;;;;;;;20.10;89.70;;;;;;4594734;19;19918;-26
2023/06/04 02:39:17;;;;;;;;;;;20.10;89.60;;;;;;4593837;19;19918;-28
2023/06/04 02:40:48;;;;;;;;;;;20.10;89.60;;;;;;4594477;19;20341;-26
2023/06/04 02:42:21;;;;;;;;;;;20.10;89.60;;;;;;4593432;19;19937;-28
2023/06/04 02:43:52;;;;;;;;;;;20.10;89.50;;;;;;4593735;19;19923;-27
2023/06/04 02:45:23;;;;;;;;;;;20.10;89.50;;;;;;4594949;19;19933;-27
2023/06/04 02:46:54;;;;;;;;;;;20.10;89.40;;;;;;4594443;19;19923;-27
2023/06/04 02:48:25;;;;;;;;;;;20.00;89.20;;;;;;4594597;19;19938;-24
2023/06/04 02:49:56;;;;;;;;;;;20.00;89.20;;;;;;4594403;19;19918;-23
2023/06/04 02:51:28;;;;;;;;;;;20.10;89.30;;;;;;4593949;19;19915;-23
2023/06/04 02:52:59;;;;;;;;;;;20.00;89.30;;;;;;4594364;19;19970;-25
2023/06/04 02:54:30;;;;;;;;;;;20.00;89.20;;;;;;4594228;19;20241;-21
2023/06/04 02:56:01;;;;;;;;;;;20.00;89.10;;;;;;4595008;19;20021;-23
2023/06/04 02:57:32;;;;;;;;;;;20.00;89.10;;;;;;4593030;19;19990;-26
2023/06/04 02:59:03;;;;;;;;;;;20.00;89.10;;;;;;4591907;19;19950;-23
2023/06/04 03:00:34;;;;;;;;;;;20.00;89.10;;;;;;4594134;19;19949;-25
2023/06/04 03:02:05;;;;;;;;;;;20.00;89.10;;;;;;4594472;19;19916;-28
2023/06/04 03:03:37;;;;;;;;;;;20.00;89.00;;;;;;4593784;19;19919;-25
2023/06/04 03:05:08;;;;;;;;;;;20.00;88.90;;;;;;4592871;19;19918;-24
2023/06/04 03:06:44;;;;;;;;;;;20.00;88.90;;;;;;4593875;19;19915;-26
2023/06/04 03:08:15;;;;;;;;;;;20.00;88.80;;;;;;4593531;19;19954;-26
2023/06/04 03:09:47;;;;;;;;;;;20.00;88.80;;;;;;4592682;19;19923;-23
2023/06/04 03:11:20;;;;;;;;;;;20.00;88.80;;;;;;4593792;19;19915;-25
2023/06/04 03:12:55;;;;;;;;;;;20.00;88.80;;;;;;4592690;19;19918;-23
2023/06/04 04:38:37;;;;;;;;;;;20.20;91.50;;;;;;4591140;19;19982;-26
2023/06/04 04:40:16;;;;;;;;;;;20.20;91.50;;;;;;4591498;19;20004;-25
2023/06/04 04:41:47;;;;;;;;;;;20.30;91.50;;;;;;4590974;19;19930;-24
2023/06/04 04:43:29;;;;;;;;;;;20.30;91.50;;;;;;4590480;19;20266;-23
2023/06/04 04:45:00;;;;;;;;;;;20.30;91.60;;;;;;4589225;19;20374;-23
2023/06/04 04:46:31;;;;;;;;;;;20.30;91.70;;;;;;4589922;19;19978;-23
2023/06/04 04:48:03;;;;;;;;;;;20.40;91.70;;;;;;4590113;19;19915;-23
2023/06/04 04:49:34;;;;;;;;;;;20.40;91.60;;;;;;4591938;19;19923;-24
2023/06/04 04:51:05;;;;;;;;;;;20.50;91.60;;;;;;4591283;19;19926;-25
2023/06/04 04:52:36;;;;;;;;;;;20.50;91.60;;;;;;4591944;19;20340;-24
2023/06/04 04:54:08;;;;;;;;;;;20.50;91.70;;;;;;4588862;19;19930;-26
2023/06/04 04:55:40;;;;;;;;;;;20.50;91.70;;;;;;4589876;19;19915;-26
2023/06/04 04:57:11;;;;;;;;;;;20.60;91.70;;;;;;4590496;19;19910;-27
2023/06/04 04:58:42;;;;;;;;;;;20.60;91.70;;;;;;4590560;19;19943;-22
2023/06/04 05:00:15;;;;;;;;;;;20.60;91.70;;;;;;4589033;19;20296;-26
2023/06/04 05:01:45;;;;;;;;;;;20.60;91.70;;;;;;4588670;19;20306;-23
2023/06/04 05:03:17;;;;;;;;;;;20.60;91.70;;;;;;4589791;19;19922;-24
2023/06/04 05:04:48;;;;;;;;;;;20.60;91.60;;;;;;4592417;19;20230;-25
2023/06/04 05:06:19;;;;;;;;;;;20.60;91.70;;;;;;4590791;19;19925;-24
2023/06/04 05:07:51;;;;;;;;;;;20.60;91.70;;;;;;4590478;19;19927;-23
2023/06/04 05:09:22;;;;;;;;;;;20.60;91.60;;;;;;4591687;19;19926;-23
2023/06/04 05:10:54;;;;;;;;;;;20.60;91.60;;;;;;4591218;19;19923;-24
2023/06/04 05:12:31;;;;;;;;;;;20.60;91.70;;;;;;4590088;19;19922;-25
2023/06/04 05:14:02;;;;;;;;;;;20.60;91.60;;;;;;4591500;19;19918;-26
2023/06/04 05:15:33;;;;;;;;;;;20.70;91.70;;;;;;4591762;19;19910;-25
2023/06/04 05:17:06;;;;;;;;;;;20.70;91.70;;;;;;4591313;19;19926;-24
2023/06/04 05:18:40;;;;;;;;;;;20.70;91.70;;;;;;4590916;19;19929;-23
2023/06/04 05:20:11;;;;;;;;;;;20.70;91.70;;;;;;4588566;19;19924;-23
2023/06/04 05:21:44;;;;;;;;;;;20.70;91.80;;;;;;4587497;19;19927;-27
2023/06/04 05:23:15;;;;;;;;;;;20.70;91.80;;;;;;4589091;19;19915;-23
2023/06/04 05:24:46;;;;;;;;;;;20.70;91.90;;;;;;4590938;19;19993;-25
2023/06/04 05:26:18;;;;;;;;;;;20.70;91.90;;;;;;4591424;19;19915;-23
2023/06/04 05:27:50;;;;;;;;;;;20.70;92.00;;;;;;4590241;19;19915;-25
2023/06/04 05:29:21;;;;;;;;;;;20.70;92.00;;;;;;4591540;19;19914;-24
2023/06/04 05:30:58;;;;;;;;;;;20.70;92.10;;;;;;4591490;19;19921;-29
2023/06/04 05:32:30;;;;;;;;;;;20.70;92.10;;;;;;4591676;19;19911;-23
2023/06/04 05:34:01;;;;;;;;;;;20.70;92.20;;;;;;4589579;19;19918;-28
2023/06/04 05:35:33;;;;;;;;;;;20.70;92.10;;;;;;4590447;19;19943;-23
2023/06/04 05:37:08;;;;;;;;;;;20.70;92.20;;;;;;4589930;19;19943;-26
2023/06/04 05:38:39;;;;;;;;;;;20.70;92.20;;;;;;4589379;19;19914;-24
2023/06/04 05:40:11;;;;;;;;;;;20.70;92.20;;;;;;4588241;19;19966;-27
2023/06/04 05:41:43;;;;;;;;;;;20.70;92.30;;;;;;4589596;19;19926;-22
2023/06/04 05:43:14;;;;;;;;;;;20.70;92.20;;;;;;4589140;19;19938;-23
2023/06/04 05:44:46;;;;;;;;;;;20.80;92.10;;;;;;4588182;19;19923;-27
2023/06/04 05:46:17;;;;;;;;;;;20.80;92.20;;;;;;4591270;19;19911;-22
2023/06/04 05:47:48;;;;;;;;;;;20.80;92.20;;;;;;4589240;19;19921;-27
2023/06/04 05:49:20;;;;;;;;;;;20.80;92.20;;;;;;4590504;19;19922;-26
2023/06/04 05:50:51;;;;;;;;;;;20.80;92.20;;;;;;4590680;19;20337;-26
2023/06/04 05:52:23;;;;;;;;;;;20.80;92.20;;;;;;4590137;19;19918;-27
2023/06/04 05:53:55;;;;;;;;;;;20.80;92.20;;;;;;4589923;19;19936;-24
2023/06/04 05:55:28;;;;;;;;;;;20.80;92.30;;;;;;4589527;19;19919;-23
2023/06/04 05:56:59;;;;;;;;;;;20.80;92.20;;;;;;4587737;19;19914;-23
2023/06/04 05:58:32;;;;;;;;;;;20.80;92.20;;;;;;4588484;19;19946;-23
2023/06/04 06:00:13;;;;;;;;;;;20.80;92.30;;;;;;4586801;19;19975;-25
2023/06/04 06:01:44;;;;;;;;;;;20.80;92.30;;;;;;4588987;19;19929;-26
2023/06/04 06:03:16;;;;;;;;;;;20.80;92.40;;;;;;4591192;19;19926;-23
2023/06/04 06:04:47;;;;;;;;;;;20.80;92.40;;;;;;4590980;19;20366;-21
2023/06/04 06:06:20;;;;;;;;;;;20.80;92.40;;;;;;4588822;19;19923;-27
2023/06/04 06:07:52;;;;;;;;;;;20.80;92.40;;;;;;4589857;19;19935;-24
2023/06/04 06:09:23;;;;;;;;;;;20.80;92.40;;;;;;4590309;19;19935;-25
2023/06/04 06:10:55;;;;;;;;;;;20.80;92.70;;;;;;4590515;19;19974;-24
2023/06/04 06:12:27;;;;;;;;;;;20.80;92.50;;;;;;4589172;19;19915;-25
2023/06/04 06:13:58;;;;;;;;;;;20.80;92.40;;;;;;4589067;19;19919;-24
2023/06/04 06:15:29;;;;;;;;;;;20.80;92.30;;;;;;4589000;19;20333;-23
2023/06/04 06:17:02;;;;;;;;;;;20.80;92.30;;;;;;4588045;19;19923;-23
2023/06/04 06:18:34;;;;;;;;;;;20.80;92.30;;;;;;4587927;19;19971;-24
2023/06/04 06:22:15;;;;;;;;;;;20.80;92.30;;;;;;4589765;19;19938;-24
2023/06/04 06:23:46;;;;;;;;;;;20.80;92.20;;;;;;4589191;19;19911;-24
2023/06/04 06:25:17;;;;;;;;;;;20.80;92.20;;;;;;4589013;19;19953;-25
2023/06/04 06:26:49;;;;;;;;;;;20.80;92.30;;;;;;4588878;19;19939;-23
2023/06/04 06:28:20;;;;;;;;;;;20.80;92.40;;;;;;4588361;19;19992;-24
2023/06/04 06:29:51;;;;;;;;;;;20.80;92.30;;;;;;4589736;19;19915;-29
2023/06/04 06:31:22;;;;;;;;;;;20.80;92.60;;;;;;4590241;19;19942;-25
2023/06/04 06:32:54;;;;;;;;;;;20.80;92.30;;;;;;4592335;19;19926;-22
2023/06/04 06:34:25;;;;;;;;;;;20.90;92.20;;;;;;4592684;19;19924;-26
2023/06/04 06:36:18;;;;;;;;;;;20.80;92.20;;;;;;4593310;19;19922;-24
2023/06/04 06:37:49;;;;;;;;;;;20.90;92.30;;;;;;4591894;19;19951;-26
2023/06/04 06:39:20;;;;;;;;;;;20.80;92.10;;;;;;4593123;19;19914;-25
2023/06/04 06:40:52;;;;;;;;;;;20.80;92.10;;;;;;4594749;19;20321;-26
2023/06/04 06:42:23;;;;;;;;;;;20.80;92.10;;;;;;4594032;19;20253;-26
2023/06/04 06:43:54;;;;;;;;;;;20.80;92.30;;;;;;4593715;19;19926;-23
2023/06/04 06:45:25;;;;;;;;;;;20.90;92.30;;;;;;4593598;19;19919;-24
2023/06/04 06:46:57;;;;;;;;;;;20.90;92.30;;;;;;4594221;19;20325;-25
2023/06/04 06:48:27;;;;;;;;;;;20.90;92.40;;;;;;4593753;19;19974;-25
2023/06/04 06:50:01;;;;;;;;;;;20.90;92.30;;;;;;4593284;19;20269;-25
2023/06/04 06:51:32;;;;;;;;;;;20.90;92.30;;;;;;4593336;19;19921;-24
2023/06/04 06:53:04;;;;;;;;;;;20.90;92.80;;;;;;4592790;19;19942;-27
2023/06/04 06:54:35;;;;;;;;;;;20.30;89.60;;;;;;4593902;19;19925;-26
2023/06/04 06:56:06;;;;;;;;;;;18.50;91.00;;;;;;4592443;19;19911;-25
2023/06/04 06:57:37;;;;;;;;;;;17.50;93.40;;;;;;4591690;19;19935;-25
2023/06/04 06:59:08;;;;;;;;;;;16.90;93.20;;;;;;4591205;19;19915;-23
2023/06/04 07:00:40;;;;;;;;;;;16.50;93.90;;;;;;4594623;19;20234;-28
2023/06/04 07:02:12;;;;;;;;;;;16.30;92.80;;;;;;4595098;19;20029;-25
2023/06/04 07:03:44;;;;;;;;;;;16.30;92.50;;;;;;4593331;19;20299;-25
2023/06/04 07:05:16;;;;;;;;;;;16.20;91.80;;;;;;4593878;19;19925;-24
2023/06/04 07:06:47;;;;;;;;;;;16.20;92.50;;;;;;4592385;19;19945;-24
2023/06/04 07:08:19;;;;;;;;;;;16.10;93.00;;;;;;4593067;19;19922;-23
2023/06/04 07:09:50;;;;;;;;;;;16.10;93.20;;;;;;4592521;19;20333;-28
2023/06/04 07:11:21;;;;;;;;;;;16.20;92.20;;;;;;4592529;19;19990;-26
2023/06/04 07:12:53;;;;;;;;;;;16.10;92.00;;;;;;4593983;19;19934;-24
2023/06/04 07:14:23;;;;;;;;;;;16.20;91.80;;;;;;4593161;19;20389;-27
2023/06/04 07:15:54;;;;;;;;;;;16.20;92.90;;;;;;4592433;19;19919;-24
2023/06/04 07:17:26;;;;;;;;;;;16.20;93.00;;;;;;4593452;19;20337;-24
2023/06/04 07:18:57;;;;;;;;;;;16.20;92.80;;;;;;4591981;19;19922;-22
2023/06/04 07:20:30;;;;;;;;;;;16.20;92.90;;;;;;4592313;19;20317;-26
2023/06/04 07:26:48;;;;;;;;;;;16.30;91.60;;;;;;4593848;19;19931;-24
2023/06/04 07:28:19;;;;;;;;;;;16.40;91.80;;;;;;4593540;19;19922;-28
2023/06/04 07:29:50;;;;;;;;;;;16.30;91.90;;;;;;4592722;19;19918;-25
2023/06/04 07:31:21;;;;;;;;;;;16.40;91.40;;;;;;4592503;19;19918;-25
2023/06/04 07:32:54;;;;;;;;;;;16.40;91.60;;;;;;4592466;19;19974;-23
2023/06/04 07:34:26;;;;;;;;;;;16.40;91.20;;;;;;4591375;19;19918;-26
2023/06/04 07:35:57;;;;;;;;;;;16.40;90.80;;;;;;4591405;19;19984;-24
2023/06/04 07:37:29;;;;;;;;;;;16.40;92.20;;;;;;4590301;19;19918;-23
2023/06/04 07:39:00;;;;;;;;;;;16.40;91.20;;;;;;4591131;19;19911;-26
2023/06/04 07:40:31;;;;;;;;;;;16.40;90.00;;;;;;4592607;19;20316;-26
2023/06/04 07:42:04;;;;;;;;;;;16.40;90.00;;;;;;4592448;19;19929;-27
2023/06/04 07:43:35;;;;;;;;;;;16.40;90.10;;;;;;4593451;19;19922;-23
2023/06/04 07:45:06;;;;;;;;;;;16.50;92.40;;;;;;4590643;19;19922;-24
2023/06/04 07:46:38;;;;;;;;;;;16.50;92.30;;;;;;4592445;19;19923;-25
2023/06/04 07:48:11;;;;;;;;;;;16.50;92.50;;;;;;4591320;19;19929;-23
2023/06/04 07:49:42;;;;;;;;;;;16.50;91.50;;;;;;4591247;19;20348;-29
2023/06/04 07:51:15;;;;;;;;;;;16.50;91.20;;;;;;4591043;19;19914;-22
2023/06/04 07:52:47;;;;;;;;;;;16.50;90.30;;;;;;4590486;19;19910;-24
2023/06/04 07:54:22;;;;;;;;;;;16.50;90.50;;;;;;4591547;19;19932;-25
2023/06/04 07:55:56;;;;;;;;;;;16.50;90.30;;;;;;4590228;19;20360;-23
2023/06/04 07:57:27;;;;;;;;;;;16.50;89.40;;;;;;4592000;19;19911;-29
2023/06/04 07:58:59;;;;;;;;;;;16.50;91.40;;;;;;4591852;19;19970;-24
2023/06/04 08:00:34;;;;;;;;;;;16.50;89.50;;;;;;4592174;19;19918;-22
2023/06/04 08:02:06;;;;;;;;;;;16.60;89.60;;;;;;4591968;19;19944;-23
2023/06/04 08:03:41;;;;;;;;;;;16.60;87.80;;;;;;4592523;19;19911;-25
2023/06/04 08:05:15;;;;;;;;;;;16.60;89.20;;;;;;4592055;19;19971;-22
2023/06/04 08:08:56;;;;;;;;;;;16.60;90.30;;;;;;4592223;19;19930;-22
2023/06/04 08:10:28;;;;;;;;;;;16.60;88.90;;;;;;4590293;19;19911;-24
2023/06/04 08:11:59;;;;;;;;;;;16.70;90.40;;;;;;4591708;19;19923;-24
2023/06/04 08:13:32;;;;;;;;;;;16.70;88.70;;;;;;4591863;19;19918;-24
2023/06/04 08:15:03;;;;;;;;;;;16.70;88.10;;;;;;4592566;19;20227;-26
2023/06/04 08:16:34;;;;;;;;;;;16.70;88.70;;;;;;4590907;19;19918;-25
2023/06/04 08:18:06;;;;;;;;;;;16.70;85.40;;;;;;4591904;19;19936;-24
2023/06/04 08:19:37;;;;;;;;;;;16.80;87.70;;;;;;4592135;19;19970;-22
2023/06/04 08:21:09;;;;;;;;;;;16.80;85.50;;;;;;4592927;19;19922;-25
2023/06/04 08:22:41;;;;;;;;;;;16.80;86.30;;;;;;4590933;19;19918;-24
2023/06/04 08:24:12;;;;;;;;;;;16.90;85.20;;;;;;4593175;19;19915;-26
2023/06/04 08:25:43;;;;;;;;;;;16.90;86.70;;;;;;4592333;19;20249;-25
2023/06/04 08:27:15;;;;;;;;;;;16.90;86.60;;;;;;4592486;19;20136;-25
2023/06/04 08:28:51;;;;;;;;;;;17.00;87.90;;;;;;4590629;19;19971;-26
2023/06/04 08:30:21;;;;;;;;;;;17.00;89.10;;;;;;4590675;19;19922;-23
2023/06/04 08:31:53;;;;;;;;;;;17.10;90.40;;;;;;4591894;19;19918;-26
2023/06/04 08:33:24;;;;;;;;;;;17.10;88.90;;;;;;4592695;19;19915;-25
2023/06/04 08:34:55;;;;;;;;;;;17.10;88.70;;;;;;4591927;19;20276;-24
2023/06/04 08:36:26;;;;;;;;;;;17.10;88.90;;;;;;4591636;19;20408;-26
2023/06/04 08:40:00;;;;;;;;;;;17.20;89.00;;;;;;4588959;19;19923;-25
2023/06/04 08:41:32;;;;;;;;;;;17.20;89.40;;;;;;4591370;19;19919;-24
2023/06/04 08:43:02;;;;;;;;;;;17.20;87.80;;;;;;4591519;19;19925;-24
2023/06/04 08:44:33;;;;;;;;;;;17.20;90.70;;;;;;4590951;19;19918;-27
2023/06/04 08:46:08;;;;;;;;;;;17.20;90.10;;;;;;4591569;19;19915;-28
2023/06/04 08:47:43;;;;;;;;;;;17.20;90.40;;;;;;4590283;19;19983;-23
2023/06/04 08:49:14;;;;;;;;;;;17.20;90.00;;;;;;4591168;19;20340;-27
2023/06/04 08:50:47;;;;;;;;;;;17.20;92.80;;;;;;4591969;19;20331;-24
2023/06/04 08:52:21;;;;;;;;;;;17.20;93.70;;;;;;4592073;19;19911;-26
2023/06/04 08:53:54;;;;;;;;;;;17.20;94.80;;;;;;4592417;19;19958;-24
2023/06/04 08:55:25;;;;;;;;;;;17.10;92.90;;;;;;4590945;19;19918;-27
2023/06/04 08:56:57;;;;;;;;;;;17.10;92.00;;;;;;4590124;19;19922;-23
2023/06/04 08:58:30;;;;;;;;;;;17.10;92.90;;;;;;4592089;19;19983;-24
2023/06/04 09:00:04;;;;;;;;;;;17.10;92.80;;;;;;4590268;19;20291;-23
2023/06/04 09:01:36;;;;;;;;;;;17.10;91.50;;;;;;4591193;19;19914;-27
2023/06/04 09:03:08;;;;;;;;;;;17.10;92.90;;;;;;4591701;19;20322;-27
2023/06/04 09:04:39;;;;;;;;;;;17.10;90.70;;;;;;4590396;19;19919;-26
2023/06/04 09:06:10;;;;;;;;;;;17.10;91.90;;;;;;4590587;19;19936;-23
2023/06/04 09:07:41;;;;;;;;;;;17.10;90.50;;;;;;4590067;19;19914;-26
2023/06/04 09:09:14;;;;;;;;;;;17.10;88.60;;;;;;4590462;19;20242;-24
2023/06/04 09:10:46;;;;;;;;;;;17.10;86.40;;;;;;4589756;19;19988;-24
2023/06/04 09:12:17;;;;;;;;;;;17.10;90.00;;;;;;4592455;19;19970;-25
2023/06/04 09:13:49;;;;;;;;;;;17.10;89.30;;;;;;4590155;19;19947;-25
2023/06/04 09:15:20;;;;;;;;;;;17.20;90.50;;;;;;4590613;19;19922;-24
2023/06/04 09:16:51;;;;;;;;;;;17.60;91.90;;;;;;4590586;19;19932;-24
2023/06/04 09:18:22;;;;;;;;;;;18.00;92.30;;;;;;4590953;19;20230;-24
2023/06/04 09:19:53;;;;;;;;;;;18.50;92.30;;;;;;4588780;19;19935;-22
2023/06/04 09:21:24;;;;;;;;;;;18.80;92.40;;;;;;4590312;19;20423;-24
2023/06/04 09:23:14;;;;;;;;;;;19.10;92.50;;;;;;4590568;19;19910;-23
2023/06/04 09:24:46;;;;;;;;;;;19.40;92.60;;;;;;4592787;19;19950;-25
2023/06/04 09:26:17;;;;;;;;;;;19.60;92.50;;;;;;4589706;19;19922;-24
2023/06/04 09:27:49;;;;;;;;;;;19.80;92.00;;;;;;4590414;19;19914;-26
2023/06/04 09:29:20;;;;;;;;;;;19.90;92.00;;;;;;4590357;19;19911;-27
2023/06/04 09:30:52;;;;;;;;;;;20.00;91.40;;;;;;4590971;19;19919;-26
2023/06/04 09:32:26;;;;;;;;;;;20.10;90.80;;;;;;4589547;19;20020;-22
2023/06/04 09:33:58;;;;;;;;;;;20.30;91.70;;;;;;4590723;19;19926;-25
2023/06/04 09:35:29;;;;;;;;;;;20.40;90.90;;;;;;4590139;19;19926;-22
2023/06/04 09:37:00;;;;;;;;;;;20.50;90.80;;;;;;4590351;19;19907;-24
2023/06/04 09:38:33;;;;;;;;;;;20.70;92.10;;;;;;4591253;19;19927;-24
2023/06/04 09:40:05;;;;;;;;;;;20.90;92.70;;;;;;4590217;19;20247;-22
2023/06/04 09:41:36;;;;;;;;;;;21.00;93.10;;;;;;4590638;19;19966;-23
2023/06/04 09:43:08;;;;;;;;;;;21.20;91.80;;;;;;4590240;19;20249;-24
2023/06/04 09:44:43;;;;;;;;;;;21.40;94.10;;;;;;4591281;19;20002;-23
2023/06/04 09:46:14;;;;;;;;;;;21.60;93.40;;;;;;4590813;19;19923;-26
2023/06/04 09:47:46;;;;;;;;;;;21.60;92.80;;;;;;4589598;19;19926;-26
2023/06/04 09:49:17;;;;;;;;;;;21.70;90.70;;;;;;4590297;19;19911;-25
2023/06/04 09:50:47;;;;;;;;;;;21.80;92.00;;;;;;4590570;19;19938;-24
2023/06/04 09:52:21;;;;;;;;;;;21.80;91.00;;;;;;4589075;19;19919;-26
2023/06/04 09:53:56;;;;;;;;;;;21.90;91.70;;;;;;4590104;19;19930;-25
2023/06/04 09:55:27;;;;;;;;;;;21.90;92.10;;;;;;4592304;19;19919;-24
2023/06/04 09:56:58;;;;;;;;;;;22.00;93.20;;;;;;4589940;19;19918;-25
2023/06/04 09:58:29;;;;;;;;;;;22.10;92.90;;;;;;4590381;19;20350;-25
2023/06/04 10:00:00;;;;;;;;;;;22.20;93.90;;;;;;4588934;19;19915;-25
2023/06/04 10:01:31;;;;;;;;;;;22.30;94.50;;;;;;4590699;19;19989;-24
2023/06/04 10:03:03;;;;;;;;;;;22.40;93.70;;;;;;4591193;19;19918;-26
2023/06/04 10:04:34;;;;;;;;;;;22.50;95.30;;;;;;4590285;19;19923;-24
2023/06/04 10:06:05;;;;;;;;;;;22.60;95.30;;;;;;4588818;19;20014;-25
2023/06/04 10:07:36;;;;;;;;;;;22.60;95.30;;;;;;4591683;19;19950;-26
2023/06/04 10:09:08;;;;;;;;;;;22.70;94.90;;;;;;4594843;19;20321;-27
2023/06/04 10:10:40;;;;;;;;;;;22.70;95.10;;;;;;4594669;19;19939;-25
2023/06/04 10:12:14;;;;;;;;;;;22.60;94.80;;;;;;4594928;19;20284;-25
2023/06/04 10:13:50;;;;;;;;;;;22.50;95.30;;;;;;4593889;19;19925;-25
2023/06/04 10:15:22;;;;;;;;;;;22.30;95.00;;;;;;4594531;19;19974;-24
2023/06/04 10:16:53;;;;;;;;;;;22.20;95.00;;;;;;4595094;19;19915;-24
2023/06/04 10:18:24;;;;;;;;;;;22.20;95.20;;;;;;4593421;19;19931;-25
2023/06/04 10:19:56;;;;;;;;;;;22.20;95.50;;;;;;4593357;19;19981;-25
2023/06/04 10:21:27;;;;;;;;;;;22.20;95.00;;;;;;4594081;19;19919;-25
2023/06/04 10:22:58;;;;;;;;;;;22.20;95.10;;;;;;4594728;19;19981;-24
2023/06/04 10:24:29;;;;;;;;;;;22.20;95.20;;;;;;4594701;19;19922;-23
2023/06/04 10:26:00;;;;;;;;;;;22.20;93.90;;;;;;4593476;19;19919;-24
2023/06/04 10:27:31;;;;;;;;;;;22.10;94.70;;;;;;4593164;19;19940;-24
2023/06/04 10:29:02;;;;;;;;;;;22.10;94.50;;;;;;4595088;19;20415;-24
2023/06/04 10:30:33;;;;;;;;;;;22.10;94.50;;;;;;4594923;19;19938;-23